Aviation Digital Data Service (ADDS)

Output produced by METARs form (2106 UTC 21 February 2017)
found at http://aviationweather.gov/adds/metars/
 
KILM 211722Z 2118/2218 11007KT P6SM SCT250 
     FM220000 VRB03KT P6SM BKN250 
     FM220900 00000KT 5SM BR BKN250 
     FM221300 VRB03KT P6SM BKN250